createdAt,value
2023-02-18T00:00:23.626Z,99558.13
2023-02-18T00:02:47.992Z,99546.55
2023-02-18T00:03:58.808Z,99554.89
2023-02-18T00:05:08.635Z,99552.82
2023-02-18T00:06:21.751Z,99545.94
2023-02-18T00:07:36.060Z,99545.36
2023-02-18T00:08:46.101Z,99550.31
2023-02-18T00:09:55.696Z,99543.77
2023-02-18T00:11:08.608Z,99532.79
2023-02-18T00:12:18.361Z,99535.85
2023-02-18T00:13:26.956Z,99529.18
2023-02-18T00:14:36.682Z,99524.09
2023-02-18T00:17:01.266Z,99515.78
2023-02-18T00:18:09.801Z,99511.69
2023-02-18T00:19:20.138Z,99508.70
2023-02-18T00:20:29.449Z,99506.61
2023-02-18T00:21:39.188Z,99501.96
2023-02-18T00:22:48.174Z,99502.62
2023-02-18T00:23:57.942Z,99493.44
2023-02-18T00:25:06.880Z,99489.86
2023-02-18T00:26:18.824Z,99486.98
2023-02-18T00:27:28.847Z,99487.48
2023-02-18T00:28:39.106Z,99486.48
2023-02-18T00:29:48.153Z,99472.98
2023-02-18T00:30:58.318Z,99469.48
2023-02-18T00:32:08.135Z,99472.86
2023-02-18T00:33:18.104Z,99466.39
2023-02-18T00:34:29.511Z,99460.13
2023-02-18T00:35:38.097Z,99455.54
2023-02-18T00:36:47.128Z,99454.69
2023-02-18T00:37:56.158Z,99447.50
2023-02-18T00:39:09.951Z,99442.91
2023-02-18T00:41:37.524Z,99430.89
2023-02-18T00:42:46.980Z,99420.19
2023-02-18T00:43:56.521Z,99421.27
2023-02-18T00:45:07.178Z,99415.25
2023-02-18T00:46:17.246Z,99416.56
2023-02-18T00:47:26.959Z,99409.13
2023-02-18T00:48:36.533Z,99402.59
2023-02-18T00:49:45.045Z,99402.10
2023-02-18T00:50:53.855Z,99400.33
2023-02-18T00:52:05.587Z,99393.14
2023-02-18T00:53:16.068Z,99396.52
2023-02-18T00:54:25.242Z,99390.22
2023-02-18T00:55:44.715Z,99376.64
2023-02-18T00:56:53.806Z,99369.41
2023-02-18T00:58:02.859Z,99377.93
2023-02-18T00:59:12.597Z,99369.81
2023-02-18T01:00:21.753Z,99360.84
2023-02-18T01:01:31.762Z,99351.72
2023-02-18T01:02:40.485Z,99351.80
2023-02-18T01:05:10.521Z,99340.41
2023-02-18T01:06:22.345Z,99344.31
2023-02-18T01:07:31.489Z,99335.31
2023-02-18T01:08:42.369Z,99330.80
2023-02-18T01:09:53.006Z,99336.02
2023-02-18T01:11:03.098Z,99324.48
2023-02-18T01:12:12.468Z,99317.28
2023-02-18T01:13:21.795Z,99326.12
2023-02-18T01:14:31.541Z,99317.06
2023-02-18T01:15:41.563Z,99314.08
2023-02-18T01:16:53.353Z,99308.52
2023-02-18T01:18:01.994Z,99308.39
2023-02-18T01:19:10.892Z,99303.67
2023-02-18T01:20:21.767Z,99300.80
2023-02-18T01:21:30.385Z,99297.17
2023-02-18T01:22:39.255Z,99297.97
2023-02-18T01:25:05.935Z,99278.64
2023-02-18T01:26:17.127Z,99280.14
2023-02-18T01:27:26.904Z,99266.81
2023-02-18T01:28:36.227Z,99271.95
2023-02-18T01:29:45.857Z,99278.20
2023-02-18T01:30:54.758Z,99268.41
2023-02-18T01:32:03.651Z,99254.55
2023-02-18T01:34:27.576Z,99244.20
2023-02-18T01:35:41.238Z,99229.98
2023-02-18T01:36:50.627Z,99238.55
2023-02-18T01:37:59.848Z,99226.14
2023-02-18T01:39:08.476Z,99230.48
2023-02-18T01:40:23.264Z,99223.48
2023-02-18T01:41:33.030Z,99223.48
2023-02-18T01:42:42.660Z,99209.84
2023-02-18T01:45:38.757Z,99203.77
2023-02-18T01:46:50.730Z,99200.77
2023-02-18T01:49:32.520Z,99193.56
2023-02-18T01:50:48.278Z,99193.22
2023-02-18T01:52:00.773Z,99174.89
2023-02-18T01:53:14.945Z,99177.46
2023-02-18T01:54:34.239Z,99176.67
2023-02-18T01:55:43.882Z,99171.45
2023-02-18T01:56:57.409Z,99174.02
2023-02-18T01:58:06.836Z,99168.03
2023-02-18T02:00:37.481Z,99156.72
2023-02-18T02:01:47.082Z,99158.17
2023-02-18T02:02:57.748Z,99154.30
2023-02-18T02:04:06.262Z,99150.71
2023-02-18T02:05:17.376Z,99147.36
2023-02-18T02:06:26.319Z,99148.98
2023-02-18T02:07:35.822Z,99133.92
2023-02-18T02:08:48.153Z,99136.73
2023-02-18T02:09:59.389Z,99128.85
2023-02-18T02:11:41.406Z,99133.14
2023-02-18T02:13:03.328Z,99135.80
2023-02-18T02:14:49.908Z,99123.53
2023-02-18T02:17:39.973Z,99111.27
2023-02-18T02:19:18.740Z,99104.70
2023-02-18T02:20:53.105Z,99105.54
2023-02-18T02:24:08.210Z,99092.23
2023-02-18T02:25:29.222Z,99088.98
2023-02-18T02:27:02.059Z,99093.17
2023-02-18T02:28:26.859Z,99086.73
2023-02-18T02:31:25.240Z,99074.89
2023-02-18T02:32:44.590Z,99077.41
2023-02-18T02:34:23.631Z,99067.09
2023-02-18T02:35:53.771Z,99065.91
2023-02-18T02:37:17.897Z,99066.59
2023-02-18T02:40:04.769Z,99055.75
2023-02-18T02:41:33.324Z,99043.42
2023-02-18T02:43:09.200Z,99049.44
2023-02-18T02:46:04.715Z,99036.98
2023-02-18T02:47:30.096Z,99025.02
2023-02-18T02:48:44.936Z,99020.48
2023-02-18T02:50:04.180Z,99016.95
2023-02-18T02:51:26.513Z,99016.86
2023-02-18T02:52:39.830Z,99006.73
2023-02-18T02:53:48.737Z,99017.17
2023-02-18T02:54:58.440Z,99010.73
2023-02-18T02:56:14.257Z,99011.52
2023-02-18T02:57:27.805Z,99010.58
2023-02-18T02:58:38.708Z,99009.45
2023-02-18T02:59:52.010Z,99006.08
2023-02-18T03:02:59.287Z,98999.08
2023-02-18T03:04:30.700Z,98996.70
2023-02-18T03:07:25.996Z,98984.70
2023-02-18T03:08:51.373Z,98986.87
2023-02-18T03:10:07.758Z,98986.48
2023-02-18T03:11:18.626Z,98994.27
2023-02-18T03:12:32.203Z,98987.27
2023-02-18T03:16:09.891Z,98976.05
2023-02-18T03:17:29.972Z,98966.53
2023-02-18T03:18:46.254Z,98970.36
2023-02-18T03:20:15.706Z,98957.70
2023-02-18T03:21:34.239Z,98961.23
2023-02-18T03:22:50.985Z,98956.48
2023-02-18T03:24:03.362Z,98957.75
2023-02-18T03:25:15.648Z,98941.20
2023-02-18T03:26:27.303Z,98940.92
2023-02-18T03:29:14.461Z,98943.70
2023-02-18T03:30:37.499Z,98932.33
2023-02-18T03:31:51.088Z,98938.88
2023-02-18T03:33:05.556Z,98933.66
2023-02-18T03:34:18.355Z,98936.53
2023-02-18T03:35:27.886Z,98934.16
2023-02-18T03:36:37.173Z,98932.00
2023-02-18T03:39:11.624Z,98916.16
2023-02-18T03:40:23.352Z,98922.89
2023-02-18T03:41:33.468Z,98918.52
2023-02-18T03:42:43.216Z,98918.22
2023-02-18T03:44:01.655Z,98914.34
2023-02-18T03:45:10.993Z,98911.78
2023-02-18T03:46:20.690Z,98913.30
2023-02-18T03:47:30.761Z,98909.13
2023-02-18T03:48:39.985Z,98910.19
2023-02-18T03:49:48.612Z,98907.62
2023-02-18T03:50:58.328Z,98908.45
2023-02-18T03:52:08.005Z,98888.16
2023-02-18T03:53:16.717Z,98892.23
2023-02-18T03:54:25.781Z,98894.05
2023-02-18T03:55:34.903Z,98873.82
2023-02-18T03:56:44.843Z,98885.23
2023-02-18T03:57:53.404Z,98871.94
2023-02-18T03:59:04.428Z,98860.34
2023-02-18T04:01:30.752Z,98870.98
2023-02-18T04:02:39.886Z,98863.75
2023-02-18T04:03:48.953Z,98853.50
2023-02-18T04:04:58.502Z,98854.17
2023-02-18T04:06:09.464Z,98853.03
2023-02-18T04:07:19.443Z,98846.22
2023-02-18T04:08:29.177Z,98838.62
2023-02-18T04:09:42.052Z,98843.14
2023-02-18T04:10:51.475Z,98820.57
2023-02-18T04:12:00.472Z,98841.72
2023-02-18T04:13:08.975Z,98834.89
2023-02-18T04:14:18.648Z,98828.80
2023-02-18T04:15:27.767Z,98827.59
2023-02-18T04:16:37.496Z,98818.95
2023-02-18T04:17:46.140Z,98816.77
2023-02-18T04:18:55.116Z,98824.86
2023-02-18T04:20:05.394Z,98819.71
2023-02-18T04:21:14.910Z,98824.58
2023-02-18T04:22:30.069Z,98814.70
2023-02-18T04:23:38.611Z,98817.53
2023-02-18T04:24:47.677Z,98821.50
2023-02-18T04:25:57.848Z,98812.75
2023-02-18T04:27:07.528Z,98812.75
2023-02-18T04:28:16.801Z,98811.81
2023-02-18T04:29:25.418Z,98806.02
2023-02-18T04:30:35.398Z,98800.34
2023-02-18T04:31:44.212Z,98784.02
2023-02-18T04:32:54.099Z,98789.61
2023-02-18T04:34:03.470Z,98792.00
2023-02-18T04:35:12.203Z,98792.94
2023-02-18T04:36:22.066Z,98790.44
2023-02-18T04:37:31.909Z,98785.91
2023-02-18T04:38:42.330Z,98780.59
2023-02-18T04:39:51.466Z,98767.03
2023-02-18T04:41:00.974Z,98750.82
2023-02-18T04:42:10.548Z,98760.46
2023-02-18T04:43:20.310Z,98760.56
2023-02-18T04:44:29.455Z,98762.08
2023-02-18T04:46:54.238Z,98752.12
2023-02-18T04:48:03.748Z,98755.88
2023-02-18T04:49:13.559Z,98752.76
2023-02-18T04:50:23.800Z,98751.34
2023-02-18T04:52:49.708Z,98738.50
2023-02-18T04:53:59.234Z,98757.01
2023-02-18T04:55:10.005Z,98750.64
2023-02-18T04:56:21.088Z,98749.39
2023-02-18T04:57:29.965Z,98749.81
2023-02-18T04:58:38.473Z,98747.50
2023-02-18T04:59:48.638Z,98737.41
2023-02-18T05:01:02.665Z,98731.14
2023-02-18T05:02:11.989Z,98718.13
2023-02-18T05:03:21.586Z,98724.64
2023-02-18T05:04:31.365Z,98726.53
2023-02-18T05:06:59.373Z,98709.56
2023-02-18T05:08:09.655Z,98719.13
2023-02-18T05:09:18.437Z,98710.31
2023-02-18T05:10:28.086Z,98695.95
2023-02-18T05:11:37.711Z,98698.05
2023-02-18T05:12:47.687Z,98709.28
2023-02-18T05:13:57.897Z,98706.66
2023-02-18T05:15:08.520Z,98723.06
2023-02-18T05:16:19.044Z,98711.05
2023-02-18T05:17:27.576Z,98708.06
2023-02-18T05:18:37.064Z,98707.56
2023-02-18T05:19:45.695Z,98699.79
2023-02-18T05:20:54.435Z,98699.79
2023-02-18T05:22:03.830Z,98691.16
2023-02-18T05:23:12.940Z,98696.58
2023-02-18T05:24:22.012Z,98689.55
2023-02-18T05:25:31.118Z,98701.29
2023-02-18T05:26:40.049Z,98694.69
2023-02-18T05:27:49.736Z,98686.05
2023-02-18T05:28:58.409Z,98692.58
2023-02-18T05:30:09.780Z,98681.48
2023-02-18T05:31:18.428Z,98683.72
2023-02-18T05:32:28.480Z,98687.14
2023-02-18T05:33:37.389Z,98671.81
2023-02-18T05:34:45.922Z,98664.55
2023-02-18T05:37:11.074Z,98656.44
2023-02-18T05:38:19.710Z,98661.67
2023-02-18T05:39:28.838Z,98667.76
2023-02-18T05:41:53.722Z,98651.15
2023-02-18T05:43:02.628Z,98662.30
2023-02-18T05:44:31.312Z,98654.09
2023-02-18T05:45:41.493Z,98651.87
2023-02-18T05:46:51.479Z,98638.97
2023-02-18T05:48:03.432Z,98636.84
2023-02-18T05:49:12.282Z,98651.87
2023-02-18T05:50:21.977Z,98646.09
2023-02-18T05:51:31.635Z,98643.23
2023-02-18T05:52:40.252Z,98636.31
2023-02-18T05:53:49.877Z,98637.83
2023-02-18T05:56:41.623Z,98631.98
2023-02-18T05:57:51.995Z,98628.67
2023-02-18T05:59:03.044Z,98627.40
2023-02-18T06:00:13.761Z,98631.88
2023-02-18T06:01:22.956Z,98629.76
2023-02-18T06:02:32.211Z,98625.58
2023-02-18T06:04:56.464Z,98608.13
2023-02-18T06:06:06.785Z,98612.92
2023-02-18T06:07:15.523Z,98606.13
2023-02-18T06:08:24.185Z,98607.72
2023-02-18T06:09:33.243Z,98610.07
2023-02-18T06:10:42.370Z,98614.50
2023-02-18T06:11:51.986Z,98610.58
2023-02-18T06:13:04.460Z,98600.48
2023-02-18T06:15:27.883Z,98590.35
2023-02-18T06:16:36.737Z,98597.16
2023-02-18T06:17:45.359Z,98606.11
2023-02-18T06:18:54.554Z,98599.20
2023-02-18T06:20:05.504Z,98595.67
2023-02-18T06:21:15.002Z,98594.10
2023-02-18T06:22:24.426Z,98596.76
2023-02-18T06:23:32.939Z,98589.95
2023-02-18T06:24:42.801Z,98598.14
2023-02-18T06:27:07.523Z,98590.48
2023-02-18T06:28:18.160Z,98593.01
2023-02-18T06:30:45.705Z,98587.06
2023-02-18T06:31:54.266Z,98582.94
2023-02-18T06:33:04.718Z,98583.98
2023-02-18T06:34:14.614Z,98580.59
2023-02-18T06:36:39.086Z,98577.04
2023-02-18T06:39:04.389Z,98578.97
2023-02-18T06:41:29.953Z,98571.52
2023-02-18T06:42:40.231Z,98580.45
2023-02-18T06:43:49.392Z,98578.88
2023-02-18T06:46:14.150Z,98574.71
2023-02-18T06:47:22.818Z,98575.05
2023-02-18T06:49:48.935Z,98575.75
2023-02-18T06:50:58.681Z,98580.35
2023-02-18T06:52:07.317Z,98571.71
2023-02-18T06:53:17.070Z,98577.45
2023-02-18T06:55:41.997Z,98566.70
2023-02-18T06:56:51.921Z,98573.20
2023-02-18T06:58:01.634Z,98572.52
2023-02-18T06:59:11.146Z,98562.36
2023-02-18T07:00:22.992Z,98574.34
2023-02-18T07:01:32.357Z,98564.72
2023-02-18T07:03:56.694Z,98565.52
2023-02-18T07:05:06.219Z,98566.20
2023-02-18T07:06:16.912Z,98559.72
2023-02-18T07:07:27.089Z,98569.25
2023-02-18T07:08:38.192Z,98564.09
2023-02-18T07:11:02.952Z,98565.02
2023-02-18T07:12:12.596Z,98557.25
2023-02-18T07:13:21.626Z,98566.67
2023-02-18T07:14:30.585Z,98567.16
2023-02-18T07:15:39.520Z,98575.84
2023-02-18T07:18:03.394Z,98569.55
2023-02-18T07:20:27.616Z,98569.00
2023-02-18T07:21:37.228Z,98571.91
2023-02-18T07:22:46.651Z,98571.20
2023-02-18T07:25:11.337Z,98567.48
2023-02-18T07:26:20.786Z,98577.40
2023-02-18T07:27:29.442Z,98568.67
2023-02-18T07:28:39.057Z,98570.34
2023-02-18T07:29:49.210Z,98562.59
2023-02-18T07:30:59.216Z,98557.14
2023-02-18T07:32:11.413Z,98554.14
2023-02-18T07:34:34.926Z,98556.55
2023-02-18T07:35:44.484Z,98567.61
2023-02-18T07:38:09.768Z,98556.05
2023-02-18T07:39:21.272Z,98550.12
2023-02-18T07:41:49.424Z,98548.46
2023-02-18T07:42:59.372Z,98556.86
2023-02-18T07:44:08.803Z,98554.03
2023-02-18T07:45:19.794Z,98562.53
2023-02-18T07:46:29.688Z,98570.81
2023-02-18T07:48:57.866Z,98563.58
2023-02-18T07:51:24.935Z,98578.26
2023-02-18T07:52:34.763Z,98584.00
2023-02-18T07:53:43.934Z,98575.84
2023-02-18T07:56:09.653Z,98566.20
2023-02-18T07:57:19.292Z,98583.39
2023-02-18T07:59:46.051Z,98575.93
2023-02-18T08:00:55.296Z,98579.23
2023-02-18T08:02:05.056Z,98579.37
2023-02-18T08:03:15.480Z,98575.77
2023-02-18T08:04:24.553Z,98570.06
2023-02-18T08:05:34.452Z,98568.75
2023-02-18T08:08:24.322Z,98553.55
2023-02-18T08:09:33.301Z,98556.77
2023-02-18T08:10:43.460Z,98555.38
2023-02-18T08:11:52.188Z,98558.15
2023-02-18T08:13:01.817Z,98558.11
2023-02-18T08:14:11.616Z,98559.80
2023-02-18T08:16:35.449Z,98552.80
2023-02-18T08:17:43.968Z,98556.84
2023-02-18T08:18:53.346Z,98549.92
2023-02-18T08:20:02.266Z,98549.05
2023-02-18T08:22:26.108Z,98544.80
2023-02-18T08:23:35.784Z,98547.66
2023-02-18T08:25:59.237Z,98529.30
2023-02-18T08:27:07.837Z,98541.98
2023-02-18T08:28:20.445Z,98544.30
2023-02-18T08:29:29.987Z,98542.86
2023-02-18T08:31:54.661Z,98526.95
2023-02-18T08:33:04.065Z,98542.66
2023-02-18T08:35:28.579Z,98522.38
2023-02-18T08:36:38.216Z,98530.66
2023-02-18T08:37:53.348Z,98530.30
2023-02-18T08:38:58.413Z,98533.58
2023-02-18T08:40:08.447Z,98542.09
2023-02-18T08:41:21.098Z,98529.92
2023-02-18T08:42:31.182Z,98538.52
2023-02-18T08:43:40.776Z,98540.19
2023-02-18T08:46:06.084Z,98541.53
2023-02-18T08:48:16.061Z,98548.33
2023-02-18T08:48:27.097Z,98552.71
2023-02-18T08:50:51.968Z,98548.55
2023-02-18T08:52:02.064Z,98556.48
2023-02-18T08:53:10.580Z,98561.70
2023-02-18T08:54:20.165Z,98564.98
2023-02-18T08:55:30.723Z,98551.74
2023-02-18T08:56:39.438Z,98560.02
2023-02-18T08:57:49.471Z,98559.77
2023-02-18T08:58:58.388Z,98559.38
2023-02-18T09:01:29.686Z,98555.86
2023-02-18T09:02:39.951Z,98567.17
2023-02-18T09:03:48.804Z,98567.04
2023-02-18T09:04:58.648Z,98582.50
2023-02-18T09:06:07.717Z,98566.59
2023-02-18T09:07:16.998Z,98557.12
2023-02-18T09:09:42.819Z,98558.80
2023-02-18T09:12:13.929Z,98548.46
2023-02-18T09:13:23.473Z,98563.05
2023-02-18T09:14:32.207Z,98553.23
2023-02-18T09:16:59.941Z,98561.56
2023-02-18T09:18:08.522Z,98565.02
2023-02-18T09:19:19.102Z,98567.30
2023-02-18T09:20:29.760Z,98559.28
2023-02-18T09:22:54.382Z,98546.66
2023-02-18T09:24:04.013Z,98561.25
2023-02-18T09:26:28.220Z,98561.70
2023-02-18T09:27:37.996Z,98567.69
2023-02-18T09:28:49.713Z,98558.80
2023-02-18T09:29:58.301Z,98553.00
2023-02-18T09:32:34.215Z,98564.62
2023-02-18T09:33:41.218Z,98573.64
2023-02-18T09:34:50.031Z,98568.42
2023-02-18T09:35:59.044Z,98563.33
2023-02-18T09:37:07.764Z,98558.24
2023-02-18T09:38:26.445Z,98565.39
2023-02-18T09:40:53.345Z,98561.24
2023-02-18T09:42:18.665Z,98565.03
2023-02-18T09:43:33.876Z,98560.91
2023-02-18T09:46:06.881Z,98559.11
2023-02-18T09:47:25.039Z,98559.59
2023-02-18T09:48:38.092Z,98550.95
2023-02-18T09:51:05.845Z,98545.75
2023-02-18T09:52:18.106Z,98537.91
2023-02-18T09:53:26.817Z,98548.14
2023-02-18T09:54:35.640Z,98549.73
2023-02-18T09:55:46.326Z,98561.39
2023-02-18T09:56:55.755Z,98563.94
2023-02-18T09:58:13.608Z,98561.52
2023-02-18T09:59:26.789Z,98545.00
2023-02-18T10:00:39.450Z,98545.97
2023-02-18T10:01:53.674Z,98558.02
2023-02-18T10:03:18.374Z,98550.78
2023-02-18T10:04:31.469Z,98548.01
2023-02-18T10:06:00.484Z,98547.66
2023-02-18T10:08:47.560Z,98547.63
2023-02-18T10:11:23.554Z,98542.19
2023-02-18T10:12:35.110Z,98547.88
2023-02-18T10:13:45.864Z,98551.55
2023-02-18T10:14:58.054Z,98544.38
2023-02-18T10:16:08.701Z,98556.38
2023-02-18T10:17:18.167Z,98547.14
2023-02-18T10:19:51.605Z,98550.52
2023-02-18T10:22:28.371Z,98544.66
2023-02-18T10:23:40.620Z,98548.20
2023-02-18T10:24:56.155Z,98541.05
2023-02-18T10:27:43.658Z,98561.88
2023-02-18T10:28:54.736Z,98531.68
2023-02-18T10:31:39.341Z,98558.36
2023-02-18T10:32:51.040Z,98554.86
2023-02-18T10:34:20.205Z,98562.53
2023-02-18T10:36:59.824Z,98552.65
2023-02-18T10:39:53.089Z,98560.77
2023-02-18T10:41:17.767Z,98557.27
2023-02-18T10:42:47.897Z,98566.13
2023-02-18T10:45:30.495Z,98554.90
2023-02-18T10:48:29.372Z,98556.83
2023-02-18T10:51:11.620Z,98559.80
2023-02-18T10:53:40.182Z,98559.80
2023-02-18T10:56:41.160Z,98574.98
2023-02-18T10:57:55.351Z,98577.55
2023-02-18T10:59:25.866Z,98568.82
2023-02-18T11:02:05.270Z,98562.01
2023-02-18T11:04:42.567Z,98553.37
2023-02-18T11:05:54.948Z,98566.38
2023-02-18T11:07:07.956Z,98560.81
2023-02-18T11:08:20.257Z,98548.29
2023-02-18T11:09:41.920Z,98562.48
2023-02-18T11:10:52.380Z,98560.81
2023-02-18T11:13:35.272Z,98539.03
2023-02-18T11:14:50.899Z,98545.36
2023-02-18T11:16:04.414Z,98551.45
2023-02-18T11:17:17.132Z,98561.88
2023-02-18T11:18:41.234Z,98553.03
2023-02-18T11:19:56.736Z,98559.80
2023-02-18T11:21:27.024Z,98550.09
2023-02-18T11:22:39.047Z,98550.81
2023-02-18T11:23:51.289Z,98553.00
2023-02-18T11:26:20.651Z,98546.02
2023-02-18T11:30:23.448Z,98539.30
2023-02-18T11:33:05.622Z,98552.31
2023-02-18T11:34:23.419Z,98540.41
2023-02-18T11:35:33.646Z,98555.73
2023-02-18T11:36:43.836Z,98552.80
2023-02-18T11:37:53.958Z,98550.00
2023-02-18T11:40:36.381Z,98548.41
2023-02-18T11:42:01.811Z,98557.19
2023-02-18T11:44:41.280Z,98545.61
2023-02-18T11:47:16.556Z,98551.09
2023-02-18T11:48:26.745Z,98542.98
2023-02-18T11:50:53.777Z,98544.61
2023-02-18T11:53:37.502Z,98548.64
2023-02-18T11:55:04.675Z,98555.34
2023-02-18T11:56:20.116Z,98562.01
2023-02-18T11:57:29.381Z,98556.17
2023-02-18T11:58:41.724Z,98545.97
2023-02-18T11:59:50.855Z,98548.02
2023-02-18T12:01:04.371Z,98553.50
2023-02-18T12:04:05.332Z,98544.23
2023-02-18T12:08:20.082Z,98545.14
2023-02-18T12:09:39.865Z,98542.52
2023-02-18T12:12:21.111Z,98550.76
2023-02-18T12:14:57.256Z,98547.25
2023-02-18T12:16:27.270Z,98547.80
2023-02-18T12:19:42.778Z,98546.23
2023-02-18T12:22:38.878Z,98568.49
2023-02-18T12:24:08.129Z,98571.34
2023-02-18T12:25:42.413Z,98569.52
2023-02-18T12:28:19.363Z,98565.36
2023-02-18T12:29:55.771Z,98561.75
2023-02-18T12:32:33.723Z,98552.61
2023-02-18T12:33:59.375Z,98565.03
2023-02-18T12:36:57.354Z,98561.24
2023-02-18T12:38:42.012Z,98569.28
2023-02-18T12:43:18.444Z,98556.51
2023-02-18T12:46:13.234Z,98551.30
2023-02-18T12:47:40.757Z,98559.20
2023-02-18T12:50:59.362Z,98555.67
2023-02-18T12:53:50.138Z,98562.34
2023-02-18T12:55:18.854Z,98557.02
2023-02-18T12:59:50.120Z,98558.80
2023-02-18T13:01:15.401Z,98575.63
2023-02-18T13:02:40.445Z,98568.19
2023-02-18T13:05:52.078Z,98574.16
2023-02-18T13:07:21.643Z,98593.72
2023-02-18T13:10:21.196Z,98594.05
2023-02-18T13:11:36.894Z,98597.10
2023-02-18T13:12:58.850Z,98592.55
2023-02-18T13:14:32.426Z,98592.81
2023-02-18T13:17:12.506Z,98597.80
2023-02-18T13:18:31.183Z,98605.27
2023-02-18T13:19:49.557Z,98609.02
2023-02-18T13:22:21.298Z,98611.25
2023-02-18T13:25:02.118Z,98612.09
2023-02-18T13:26:14.192Z,98611.44
2023-02-18T13:27:33.684Z,98615.81
2023-02-18T13:29:03.603Z,98614.02
2023-02-18T13:30:25.735Z,98617.64
2023-02-18T13:31:52.999Z,98620.07
2023-02-18T13:34:42.592Z,98612.22
2023-02-18T13:36:04.470Z,98617.89
2023-02-18T13:37:20.942Z,98614.23
2023-02-18T13:38:47.234Z,98622.98
2023-02-18T13:39:58.165Z,98628.20
2023-02-18T13:41:09.172Z,98623.94
2023-02-18T13:42:24.396Z,98636.92
2023-02-18T13:45:00.412Z,98631.73
2023-02-18T13:47:41.272Z,98641.56
2023-02-18T13:50:19.236Z,98639.53
2023-02-18T13:51:35.685Z,98648.34
2023-02-18T13:52:45.579Z,98651.73
2023-02-18T13:55:25.129Z,98652.00
2023-02-18T13:56:37.473Z,98656.34
2023-02-18T13:57:49.071Z,98660.81
2023-02-18T13:59:04.506Z,98657.91
2023-02-18T14:01:44.426Z,98635.39
2023-02-18T14:02:59.096Z,98642.26
2023-02-18T14:05:59.869Z,98665.59
2023-02-18T14:07:41.339Z,98667.55
2023-02-18T14:08:51.529Z,98667.19
2023-02-18T14:10:02.542Z,98666.87
2023-02-18T14:11:15.300Z,98670.49
2023-02-18T14:12:40.232Z,98673.80
2023-02-18T14:13:54.350Z,98668.91
2023-02-18T14:17:14.952Z,98667.41
2023-02-18T14:18:26.751Z,98671.45
2023-02-18T14:19:35.414Z,98677.06
2023-02-18T14:20:50.343Z,98675.15
2023-02-18T14:24:01.360Z,98672.00
2023-02-18T14:25:23.399Z,98667.59
2023-02-18T14:26:49.172Z,98666.11
2023-02-18T14:28:03.367Z,98662.09
2023-02-18T14:29:24.307Z,98664.20
2023-02-18T14:34:58.370Z,98666.39
2023-02-18T14:36:28.508Z,98667.11
2023-02-18T14:37:40.790Z,98661.53
2023-02-18T14:39:09.674Z,98670.97
2023-02-18T14:42:16.324Z,98654.37
2023-02-18T14:43:35.164Z,98659.55
2023-02-18T14:44:59.785Z,98658.70
2023-02-18T14:48:07.473Z,98659.86
2023-02-18T14:50:55.923Z,98659.02
2023-02-18T14:52:07.701Z,98668.45
2023-02-18T14:53:24.610Z,98663.72
2023-02-18T14:54:33.773Z,98658.38
2023-02-18T14:55:47.066Z,98660.58
2023-02-18T14:58:32.329Z,98651.85
2023-02-18T14:59:43.635Z,98656.20
2023-02-18T15:00:52.263Z,98663.96
2023-02-18T15:03:21.825Z,98653.68
2023-02-18T15:04:31.648Z,98651.70
2023-02-18T15:05:40.158Z,98649.03
2023-02-18T15:08:23.433Z,98655.59
2023-02-18T15:10:54.585Z,98654.04
2023-02-18T15:12:07.099Z,98658.11
2023-02-18T15:13:29.085Z,98657.27
2023-02-18T15:14:42.769Z,98661.65
2023-02-18T15:15:55.108Z,98663.24
2023-02-18T15:17:06.993Z,98647.95
2023-02-18T15:19:42.378Z,98654.28
2023-02-18T15:20:52.298Z,98651.58
2023-02-18T15:23:17.392Z,98649.06
2023-02-18T15:24:37.678Z,98653.41
2023-02-18T15:25:54.443Z,98655.72
2023-02-18T15:27:16.379Z,98639.28
2023-02-18T15:28:32.607Z,98652.89
2023-02-18T15:29:41.946Z,98656.64
2023-02-18T15:30:51.843Z,98659.31
2023-02-18T15:33:20.309Z,98654.52
2023-02-18T15:34:32.612Z,98646.24
2023-02-18T15:35:41.873Z,98646.13
2023-02-18T15:36:52.904Z,98648.19
2023-02-18T15:38:01.531Z,98649.03
2023-02-18T15:40:34.392Z,98656.34
2023-02-18T15:43:01.479Z,98660.09
2023-02-18T15:45:39.610Z,98664.36
2023-02-18T15:46:49.778Z,98673.80
2023-02-18T15:49:19.365Z,98663.75
2023-02-18T15:50:36.715Z,98666.51
2023-02-18T15:51:46.999Z,98664.59
2023-02-18T15:52:59.398Z,98669.30
2023-02-18T15:55:38.734Z,98667.63
2023-02-18T15:56:50.797Z,98660.18
2023-02-18T15:59:30.188Z,98655.23
2023-02-18T16:02:19.484Z,98668.94
2023-02-18T16:03:31.654Z,98675.95
2023-02-18T16:06:19.643Z,98671.73
2023-02-18T16:07:32.143Z,98674.47
2023-02-18T16:10:16.753Z,98667.11
2023-02-18T16:11:29.407Z,98679.17
2023-02-18T16:12:39.926Z,98683.44
2023-02-18T16:13:49.378Z,98680.88
2023-02-18T16:14:59.145Z,98677.61
2023-02-18T16:17:30.251Z,98679.01
2023-02-18T16:18:41.831Z,98680.53
2023-02-18T16:21:22.360Z,98686.54
2023-02-18T16:22:38.523Z,98691.00
2023-02-18T16:23:59.944Z,98689.80
2023-02-18T16:26:43.937Z,98684.95
2023-02-18T16:29:29.363Z,98694.66
2023-02-18T16:31:55.161Z,98691.39
2023-02-18T16:33:05.271Z,98700.52
2023-02-18T16:34:14.888Z,98692.34
2023-02-18T16:35:30.676Z,98701.09
2023-02-18T16:37:59.642Z,98694.50
2023-02-18T16:39:09.785Z,98702.58
2023-02-18T16:40:39.572Z,98708.44
2023-02-18T16:43:15.475Z,98706.88
2023-02-18T16:44:24.101Z,98700.31
2023-02-18T16:45:39.499Z,98698.48
2023-02-18T16:46:48.837Z,98706.72
2023-02-18T16:49:14.023Z,98708.59
2023-02-18T16:50:24.089Z,98706.48
2023-02-18T16:51:35.231Z,98710.75
2023-02-18T16:52:44.794Z,98696.77
2023-02-18T16:53:54.365Z,98694.98
2023-02-18T16:56:25.356Z,98700.00
2023-02-18T16:57:34.773Z,98717.55
2023-02-18T16:58:44.042Z,98712.94
2023-02-18T16:59:52.581Z,98703.14
2023-02-18T17:01:02.168Z,98710.27
2023-02-18T17:02:22.510Z,98709.03
2023-02-18T17:03:32.675Z,98702.63
2023-02-18T17:04:41.538Z,98700.91
2023-02-18T17:05:50.736Z,98709.03
2023-02-18T17:07:00.381Z,98712.29
2023-02-18T17:08:19.899Z,98707.80
2023-02-18T17:09:28.544Z,98709.03
2023-02-18T17:10:38.565Z,98720.22
2023-02-18T17:11:50.656Z,98719.27
2023-02-18T17:12:59.281Z,98711.47
2023-02-18T17:15:30.471Z,98711.63
2023-02-18T17:16:39.415Z,98700.31
2023-02-18T17:17:48.391Z,98713.30
2023-02-18T17:20:15.037Z,98703.86
2023-02-18T17:21:25.203Z,98715.44
2023-02-18T17:22:33.781Z,98710.23
2023-02-18T17:23:44.335Z,98714.61
2023-02-18T17:24:52.846Z,98722.84
2023-02-18T17:26:01.666Z,98714.95
2023-02-18T17:27:11.037Z,98720.05
2023-02-18T17:28:20.192Z,98715.80
2023-02-18T17:29:28.836Z,98707.16
2023-02-18T17:30:40.725Z,98718.46
2023-02-18T17:31:53.760Z,98699.55
2023-02-18T17:33:03.922Z,98716.88
2023-02-18T17:35:37.286Z,98709.39
2023-02-18T17:36:47.372Z,98718.90
2023-02-18T17:39:16.984Z,98709.67
2023-02-18T17:40:28.144Z,98709.22
2023-02-18T17:41:38.933Z,98705.97
2023-02-18T17:42:47.478Z,98716.52
2023-02-18T17:43:56.229Z,98713.13
2023-02-18T17:46:29.138Z,98718.39
2023-02-18T17:47:37.674Z,98711.70
2023-02-18T17:48:46.795Z,98714.95
2023-02-18T17:51:25.892Z,98716.97
2023-02-18T17:52:36.129Z,98717.16
2023-02-18T17:53:45.150Z,98722.61
2023-02-18T17:54:54.096Z,98725.28
2023-02-18T17:57:17.898Z,98723.21
2023-02-18T17:58:26.786Z,98724.03
2023-02-18T17:59:36.410Z,98724.88
2023-02-18T18:00:51.336Z,98719.53
2023-02-18T18:02:00.868Z,98728.61
2023-02-18T18:03:13.097Z,98725.94